createdAt,value
2023-03-19T00:02:22.468Z,13.28
2023-03-19T00:04:54.902Z,12.50
2023-03-19T00:07:28.608Z,12.63
2023-03-19T00:10:00.840Z,14.00
2023-03-19T00:12:31.552Z,12.40
2023-03-19T00:15:04.561Z,12.45
2023-03-19T00:17:40.792Z,12.55
2023-03-19T00:20:15.864Z,13.32
2023-03-19T00:22:51.189Z,12.30
2023-03-19T00:25:21.739Z,12.90
2023-03-19T00:27:57.421Z,13.03
2023-03-19T00:30:28.095Z,11.83
2023-03-19T00:32:58.662Z,12.75
2023-03-19T00:35:29.345Z,13.17
2023-03-19T00:37:59.996Z,12.58
2023-03-19T00:40:30.618Z,12.28
2023-03-19T00:43:02.750Z,12.68
2023-03-19T00:45:33.861Z,13.08
2023-03-19T00:48:04.899Z,12.30
2023-03-19T00:50:35.837Z,12.50
2023-03-19T00:53:08.105Z,12.73
2023-03-19T00:55:38.713Z,12.03
2023-03-19T00:58:10.196Z,12.23
2023-03-19T01:00:43.788Z,11.53
2023-03-19T01:03:15.511Z,12.15
2023-03-19T01:05:51.126Z,12.78
2023-03-19T01:08:23.291Z,11.80
2023-03-19T01:10:54.232Z,12.13
2023-03-19T01:13:24.863Z,12.03
2023-03-19T01:15:55.518Z,11.65
2023-03-19T01:18:26.395Z,11.80
2023-03-19T01:21:00.338Z,12.37
2023-03-19T01:23:34.015Z,11.90
2023-03-19T01:26:06.282Z,11.78
2023-03-19T01:28:39.650Z,12.10
2023-03-19T01:31:12.771Z,11.95
2023-03-19T01:33:45.099Z,12.80
2023-03-19T01:36:16.217Z,12.68
2023-03-19T01:38:46.874Z,13.30
2023-03-19T01:41:17.451Z,12.47
2023-03-19T01:43:49.288Z,13.50
2023-03-19T01:46:33.769Z,12.35
2023-03-19T01:49:07.389Z,12.40
2023-03-19T01:51:45.819Z,12.30
2023-03-19T01:54:21.557Z,12.43
2023-03-19T01:56:57.340Z,12.90
2023-03-19T01:59:36.681Z,13.13
2023-03-19T02:02:20.844Z,13.22
2023-03-19T02:04:56.959Z,12.47
2023-03-19T02:07:30.077Z,13.95
2023-03-19T02:10:04.167Z,13.20
2023-03-19T02:12:38.182Z,13.10
2023-03-19T02:15:10.237Z,12.63
2023-03-19T02:17:48.675Z,12.88
2023-03-19T02:20:22.268Z,12.60
2023-03-19T02:23:22.781Z,12.98
2023-03-19T02:25:59.919Z,12.83
2023-03-19T02:28:36.710Z,13.22
2023-03-19T02:31:10.304Z,12.78
2023-03-19T02:33:41.894Z,13.43
2023-03-19T02:36:18.309Z,13.07
2023-03-19T02:38:50.902Z,13.65
2023-03-19T02:41:30.101Z,13.83
2023-03-19T02:44:03.494Z,14.13
2023-03-19T02:46:34.414Z,13.58
2023-03-19T02:49:06.639Z,14.05
2023-03-19T02:51:39.500Z,14.97
2023-03-19T02:54:16.270Z,14.07
2023-03-19T02:56:48.699Z,14.98
2023-03-19T02:59:21.461Z,14.70
2023-03-19T03:01:56.094Z,14.33
2023-03-19T03:04:29.753Z,14.55
2023-03-19T03:07:03.528Z,13.83
2023-03-19T03:09:34.127Z,14.45
2023-03-19T03:12:05.326Z,13.25
2023-03-19T03:14:36.988Z,14.53
2023-03-19T03:17:10.114Z,14.68
2023-03-19T03:19:42.684Z,14.73
2023-03-19T03:22:13.169Z,14.50
2023-03-19T03:24:44.519Z,14.30
2023-03-19T03:27:17.123Z,13.50
2023-03-19T03:29:49.176Z,15.00
2023-03-19T03:32:23.222Z,14.03
2023-03-19T03:34:55.855Z,13.97
2023-03-19T03:37:26.671Z,14.10
2023-03-19T03:39:57.951Z,14.18
2023-03-19T03:42:33.188Z,14.10
2023-03-19T03:45:04.968Z,13.48
2023-03-19T03:47:39.142Z,14.78
2023-03-19T03:50:14.962Z,14.83
2023-03-19T03:52:45.510Z,14.73
2023-03-19T03:55:18.646Z,14.43
2023-03-19T03:57:52.061Z,15.08
2023-03-19T04:00:26.932Z,15.48
2023-03-19T04:02:59.789Z,16.10
2023-03-19T04:05:32.822Z,15.03
2023-03-19T04:08:04.434Z,15.30
2023-03-19T04:10:38.191Z,15.88
2023-03-19T04:13:11.170Z,15.93
2023-03-19T04:15:45.692Z,14.40
2023-03-19T04:18:19.070Z,13.95
2023-03-19T04:20:52.691Z,14.38
2023-03-19T04:23:26.681Z,15.70
2023-03-19T04:26:03.114Z,14.65
2023-03-19T04:28:36.420Z,15.28
2023-03-19T04:31:12.364Z,14.90
2023-03-19T04:33:44.929Z,15.03
2023-03-19T04:36:19.503Z,14.33
2023-03-19T04:38:53.454Z,14.73
2023-03-19T04:41:27.417Z,15.70
2023-03-19T04:43:58.268Z,13.90
2023-03-19T04:46:32.692Z,14.28
2023-03-19T04:49:04.549Z,15.08
2023-03-19T04:51:39.884Z,14.38
2023-03-19T04:54:11.574Z,14.83
2023-03-19T04:56:43.525Z,14.73
2023-03-19T04:59:16.534Z,13.85
2023-03-19T05:01:47.980Z,14.07
2023-03-19T05:04:21.382Z,14.58
2023-03-19T05:06:54.695Z,14.70
2023-03-19T05:09:31.764Z,15.25
2023-03-19T05:12:06.618Z,14.93
2023-03-19T05:14:37.216Z,15.10
2023-03-19T05:17:10.831Z,16.07
2023-03-19T05:19:45.959Z,15.50
2023-03-19T05:22:18.009Z,16.30
2023-03-19T05:24:51.884Z,16.57
2023-03-19T05:27:26.814Z,16.95
2023-03-19T05:29:57.730Z,17.10
2023-03-19T05:32:30.598Z,16.80
2023-03-19T05:35:01.241Z,16.50
2023-03-19T05:37:35.306Z,16.60
2023-03-19T05:40:09.069Z,17.60
2023-03-19T05:42:39.726Z,19.23
2023-03-19T05:45:12.453Z,18.42
2023-03-19T05:47:44.058Z,18.95
2023-03-19T05:50:18.136Z,19.52
2023-03-19T05:52:48.621Z,19.13
2023-03-19T05:55:20.750Z,18.67
2023-03-19T05:57:55.041Z,19.90
2023-03-19T06:00:25.618Z,19.17
2023-03-19T06:02:57.628Z,19.20
2023-03-19T06:05:29.723Z,18.45
2023-03-19T06:08:01.421Z,18.52
2023-03-19T06:10:33.602Z,18.77
2023-03-19T06:13:06.060Z,19.05
2023-03-19T06:15:36.740Z,19.23
2023-03-19T06:18:08.264Z,19.33
2023-03-19T06:20:39.027Z,20.27
2023-03-19T06:23:10.861Z,19.52
2023-03-19T06:25:41.699Z,18.90
2023-03-19T06:28:12.610Z,18.65
2023-03-19T06:30:44.506Z,18.45
2023-03-19T06:33:16.542Z,16.57
2023-03-19T06:35:47.767Z,16.27
2023-03-19T06:38:18.195Z,16.57
2023-03-19T06:40:50.258Z,15.40
2023-03-19T06:43:21.862Z,14.90
2023-03-19T06:45:52.326Z,15.93
2023-03-19T06:48:23.534Z,14.28
2023-03-19T06:50:56.194Z,14.47
2023-03-19T06:53:27.077Z,14.25
2023-03-19T06:55:58.781Z,14.45
2023-03-19T06:58:32.714Z,17.95
2023-03-19T07:01:04.053Z,15.32
2023-03-19T07:03:34.664Z,14.53
2023-03-19T07:06:05.594Z,15.53
2023-03-19T07:08:36.332Z,15.55
2023-03-19T07:11:08.398Z,16.55
2023-03-19T07:13:39.366Z,17.20
2023-03-19T07:16:10.361Z,17.52
2023-03-19T07:18:41.046Z,17.55
2023-03-19T07:21:12.609Z,16.75
2023-03-19T07:23:43.368Z,17.45
2023-03-19T07:26:14.179Z,18.48
2023-03-19T07:28:45.658Z,17.92
2023-03-19T07:31:17.177Z,18.85
2023-03-19T07:33:49.339Z,18.15
2023-03-19T07:36:23.240Z,19.90
2023-03-19T07:38:54.125Z,20.20
2023-03-19T07:41:25.077Z,20.45
2023-03-19T07:43:57.443Z,21.50
2023-03-19T07:46:28.472Z,22.80
2023-03-19T07:49:00.130Z,22.90
2023-03-19T07:51:31.187Z,22.35
2023-03-19T07:54:04.741Z,22.93
2023-03-19T07:56:35.309Z,23.60
2023-03-19T07:59:08.831Z,25.53
2023-03-19T08:01:39.485Z,24.50
2023-03-19T08:04:09.909Z,25.45
2023-03-19T08:06:40.777Z,24.75
2023-03-19T08:09:12.415Z,24.43
2023-03-19T08:11:43.736Z,24.07
2023-03-19T08:14:14.240Z,25.23
2023-03-19T08:16:46.472Z,25.97
2023-03-19T08:19:19.421Z,26.02
2023-03-19T08:21:52.958Z,28.50
2023-03-19T08:24:24.813Z,27.70
2023-03-19T08:26:55.318Z,27.43
2023-03-19T08:29:27.716Z,26.33
2023-03-19T08:32:00.291Z,26.87
2023-03-19T08:34:33.851Z,26.00
2023-03-19T08:37:06.101Z,25.27
2023-03-19T08:39:38.681Z,24.63
2023-03-19T08:42:09.955Z,24.80
2023-03-19T08:44:41.314Z,24.10
2023-03-19T08:47:12.180Z,22.80
2023-03-19T08:49:44.554Z,23.53
2023-03-19T08:52:16.325Z,23.92
2023-03-19T08:54:48.577Z,23.27
2023-03-19T08:57:20.585Z,23.12
2023-03-19T08:59:54.351Z,23.27
2023-03-19T09:02:27.999Z,22.80
2023-03-19T09:04:59.373Z,22.87
2023-03-19T09:07:34.531Z,23.38
2023-03-19T09:10:09.422Z,21.73
2023-03-19T09:12:40.258Z,22.60
2023-03-19T09:15:11.755Z,23.73
2023-03-19T09:17:43.613Z,22.90
2023-03-19T09:20:15.898Z,22.50
2023-03-19T09:22:47.849Z,20.12
2023-03-19T09:25:23.264Z,19.63
2023-03-19T09:27:54.560Z,19.07
2023-03-19T09:30:25.341Z,19.60
2023-03-19T09:33:06.875Z,18.40
2023-03-19T09:35:38.668Z,18.83
2023-03-19T09:38:12.799Z,18.50
2023-03-19T09:40:46.547Z,18.07
2023-03-19T09:43:47.093Z,18.15
2023-03-19T09:46:25.965Z,17.87
2023-03-19T09:49:28.287Z,16.50
2023-03-19T09:52:20.742Z,16.93
2023-03-19T09:54:53.821Z,15.23
2023-03-19T09:57:25.683Z,15.50
2023-03-19T09:59:56.651Z,15.68
2023-03-19T10:02:44.013Z,14.70
2023-03-19T10:05:23.428Z,14.43
2023-03-19T10:07:57.804Z,14.15
2023-03-19T10:10:39.357Z,14.63
2023-03-19T10:13:42.021Z,14.05
2023-03-19T10:16:17.378Z,14.47
2023-03-19T10:18:54.889Z,14.68
2023-03-19T10:21:35.570Z,14.83
2023-03-19T10:24:26.133Z,14.33
2023-03-19T10:27:03.449Z,14.23
2023-03-19T10:29:35.748Z,14.63
2023-03-19T10:32:23.116Z,13.25
2023-03-19T10:35:01.374Z,13.78
2023-03-19T10:37:35.241Z,13.08
2023-03-19T10:40:11.667Z,14.83
2023-03-19T10:43:13.280Z,13.53
2023-03-19T10:45:48.008Z,14.18
2023-03-19T10:48:26.950Z,12.93
2023-03-19T10:51:07.336Z,13.83
2023-03-19T10:53:43.132Z,14.85
2023-03-19T10:56:29.791Z,14.13
2023-03-19T10:59:11.718Z,13.53
2023-03-19T11:01:45.402Z,13.58
2023-03-19T11:04:25.881Z,12.90
2023-03-19T11:07:07.949Z,12.80
2023-03-19T11:09:45.425Z,13.62
2023-03-19T11:12:28.256Z,11.80
2023-03-19T11:15:03.978Z,12.85
2023-03-19T11:17:44.009Z,12.13
2023-03-19T11:20:33.509Z,12.45
2023-03-19T11:23:13.410Z,11.70
2023-03-19T11:25:57.533Z,11.20
2023-03-19T11:28:31.111Z,11.30
2023-03-19T11:31:34.094Z,9.95
2023-03-19T11:34:12.595Z,9.95
2023-03-19T11:37:08.989Z,10.10
2023-03-19T11:39:50.656Z,10.35
2023-03-19T11:42:45.187Z,10.45
2023-03-19T11:45:18.799Z,9.60
2023-03-19T11:48:15.632Z,9.78
2023-03-19T11:50:59.704Z,10.20
2023-03-19T11:53:57.483Z,8.83
2023-03-19T11:56:44.304Z,8.70
2023-03-19T11:59:42.186Z,8.98
2023-03-19T12:02:47.784Z,8.68
2023-03-19T12:05:38.874Z,9.50
2023-03-19T12:08:17.680Z,9.25
2023-03-19T12:11:28.640Z,9.30
2023-03-19T12:14:33.086Z,10.05
2023-03-19T12:17:36.196Z,9.08
2023-03-19T12:20:14.011Z,8.65
2023-03-19T12:22:52.221Z,9.00
2023-03-19T12:25:31.513Z,9.30
2023-03-19T12:28:11.336Z,11.60
2023-03-19T12:30:54.061Z,14.45
2023-03-19T12:33:54.412Z,9.88
2023-03-19T12:36:32.379Z,9.13
2023-03-19T12:39:21.170Z,9.33
2023-03-19T12:41:56.332Z,8.70
2023-03-19T12:44:33.630Z,8.70
2023-03-19T12:47:26.876Z,9.30
2023-03-19T12:50:09.634Z,8.43
2023-03-19T12:52:47.294Z,8.45
2023-03-19T12:55:38.813Z,9.15
2023-03-19T12:58:14.435Z,8.88
2023-03-19T13:00:58.726Z,9.13
2023-03-19T13:06:52.318Z,9.33
2023-03-19T13:09:45.823Z,9.23
2023-03-19T13:12:24.617Z,10.95
2023-03-19T13:15:14.191Z,10.20
2023-03-19T13:18:14.435Z,9.90
2023-03-19T13:21:00.113Z,9.28
2023-03-19T13:23:37.463Z,9.15
2023-03-19T13:26:13.836Z,9.85
2023-03-19T13:29:04.287Z,9.28
2023-03-19T13:31:39.162Z,9.28
2023-03-19T13:34:22.366Z,9.15
2023-03-19T13:37:14.363Z,8.90
2023-03-19T13:39:48.493Z,10.60
2023-03-19T13:42:41.837Z,9.73
2023-03-19T13:45:40.806Z,10.43
2023-03-19T13:48:33.935Z,9.45
2023-03-19T13:51:24.353Z,8.73
2023-03-19T13:54:12.883Z,9.33
2023-03-19T13:57:06.068Z,8.90
2023-03-19T13:59:39.568Z,8.90
2023-03-19T14:02:31.588Z,9.00
2023-03-19T14:05:12.167Z,9.58
2023-03-19T14:07:47.325Z,9.80
2023-03-19T14:10:34.840Z,9.85
2023-03-19T14:13:12.979Z,12.13
2023-03-19T14:15:53.455Z,9.48
2023-03-19T14:18:26.994Z,9.25
2023-03-19T14:21:07.139Z,9.13
2023-03-19T14:23:43.015Z,9.43
2023-03-19T14:26:17.129Z,9.38
2023-03-19T14:29:11.505Z,9.65
2023-03-19T14:31:53.866Z,9.80
2023-03-19T14:34:47.939Z,14.35
2023-03-19T14:37:21.574Z,9.03
2023-03-19T14:40:15.063Z,9.00
2023-03-19T14:43:08.060Z,8.88
2023-03-19T14:46:01.197Z,9.25
2023-03-19T14:49:00.330Z,8.98
2023-03-19T14:52:01.045Z,8.73
2023-03-19T14:54:40.178Z,8.63
2023-03-19T14:57:18.872Z,7.65
2023-03-19T14:59:51.173Z,8.88
2023-03-19T15:02:35.202Z,9.28
2023-03-19T15:05:11.314Z,8.20
2023-03-19T15:07:46.625Z,8.55
2023-03-19T15:10:24.741Z,8.38
2023-03-19T15:13:04.591Z,7.55
2023-03-19T15:15:56.592Z,8.40
2023-03-19T15:18:33.074Z,8.23
2023-03-19T15:21:05.738Z,8.50
2023-03-19T15:23:40.105Z,8.45
2023-03-19T15:26:21.207Z,8.38
2023-03-19T15:28:56.215Z,8.78
2023-03-19T15:31:54.007Z,8.30
2023-03-19T15:34:26.187Z,8.08
2023-03-19T15:37:06.440Z,8.13
2023-03-19T15:39:41.405Z,7.47
2023-03-19T15:42:13.129Z,7.92
2023-03-19T15:44:58.719Z,8.18
2023-03-19T15:47:34.346Z,7.75
2023-03-19T15:50:12.449Z,8.20
2023-03-19T15:52:46.236Z,8.48
2023-03-19T15:55:29.149Z,8.70
2023-03-19T15:58:19.584Z,8.25
2023-03-19T16:00:56.497Z,8.88
2023-03-19T16:03:41.548Z,9.38
2023-03-19T16:06:18.638Z,9.33
2023-03-19T16:08:55.434Z,9.03
2023-03-19T16:11:33.952Z,8.53
2023-03-19T16:14:13.614Z,9.15
2023-03-19T16:16:49.901Z,8.65
2023-03-19T16:19:37.446Z,9.28
2023-03-19T16:22:28.804Z,8.98
2023-03-19T16:25:02.281Z,9.60
2023-03-19T16:27:44.378Z,8.80
2023-03-19T16:30:28.417Z,11.20
2023-03-19T16:33:06.364Z,9.48
2023-03-19T16:35:47.498Z,9.35
2023-03-19T16:38:29.105Z,10.03
2023-03-19T16:41:20.965Z,9.38
2023-03-19T16:43:55.643Z,9.60
2023-03-19T16:46:32.950Z,9.38
2023-03-19T16:49:05.081Z,9.63
2023-03-19T16:51:37.658Z,9.25
2023-03-19T16:54:24.905Z,10.90
2023-03-19T16:56:56.899Z,10.78
2023-03-19T16:59:32.109Z,10.32
2023-03-19T17:02:07.648Z,10.18
2023-03-19T17:04:38.369Z,10.38
2023-03-19T17:07:10.563Z,10.68
2023-03-19T17:09:41.612Z,14.68
2023-03-19T17:12:15.513Z,13.18
2023-03-19T17:14:47.197Z,14.03
2023-03-19T17:17:20.536Z,11.60
2023-03-19T17:19:52.186Z,10.93
2023-03-19T17:22:24.529Z,10.78
2023-03-19T17:24:56.728Z,11.40
2023-03-19T17:27:28.548Z,11.88
2023-03-19T17:29:59.176Z,12.03
2023-03-19T17:32:31.877Z,12.75
2023-03-19T17:35:06.932Z,12.70
2023-03-19T17:37:41.149Z,12.88
2023-03-19T17:40:20.467Z,13.60
2023-03-19T17:42:53.163Z,14.53
2023-03-19T17:45:29.833Z,14.83
2023-03-19T17:48:04.369Z,15.88
2023-03-19T17:50:36.213Z,18.23
2023-03-19T17:53:10.466Z,19.32
2023-03-19T17:55:42.008Z,15.03
2023-03-19T17:58:24.431Z,17.60
2023-03-19T18:00:56.611Z,18.25
2023-03-19T18:03:34.834Z,19.35
2023-03-19T18:06:06.908Z,22.73
2023-03-19T18:08:39.501Z,19.15
2023-03-19T18:11:11.706Z,25.90
2023-03-19T18:13:43.556Z,24.30
2023-03-19T18:16:32.268Z,23.90
2023-03-19T18:19:08.139Z,17.57
2023-03-19T18:21:39.060Z,18.40
2023-03-19T18:24:11.275Z,16.70
2023-03-19T18:26:43.884Z,15.40
2023-03-19T18:29:14.952Z,18.65
2023-03-19T18:31:51.238Z,19.07
2023-03-19T18:34:22.918Z,18.50
2023-03-19T18:36:53.371Z,19.62
2023-03-19T18:39:23.973Z,18.32
2023-03-19T18:41:56.058Z,19.32
2023-03-19T18:44:28.675Z,18.02
2023-03-19T18:47:00.492Z,17.50
2023-03-19T18:49:31.338Z,20.92
2023-03-19T18:52:03.923Z,19.90
2023-03-19T18:54:34.760Z,16.15
2023-03-19T18:57:08.839Z,15.05
2023-03-19T18:59:41.111Z,15.72
2023-03-19T19:02:31.195Z,15.20
2023-03-19T19:05:03.232Z,13.30
2023-03-19T19:07:33.902Z,14.80
2023-03-19T19:10:05.416Z,14.35
2023-03-19T19:12:39.676Z,12.28
2023-03-19T19:15:18.860Z,12.85
2023-03-19T19:17:49.813Z,11.25
2023-03-19T19:20:23.347Z,10.90
2023-03-19T19:22:56.199Z,10.43
2023-03-19T19:25:29.421Z,10.23
2023-03-19T19:28:07.495Z,10.53
2023-03-19T19:30:39.725Z,10.03
2023-03-19T19:33:21.850Z,9.35
2023-03-19T19:35:53.714Z,9.20
2023-03-19T19:38:24.312Z,8.60
2023-03-19T19:40:58.387Z,8.18
2023-03-19T19:43:32.768Z,8.35
2023-03-19T19:46:03.514Z,9.25
2023-03-19T19:48:34.186Z,7.72
2023-03-19T19:51:04.882Z,8.50
2023-03-19T19:53:36.492Z,7.53
2023-03-19T19:56:18.426Z,6.62
2023-03-19T19:58:53.121Z,6.22
2023-03-19T20:01:26.393Z,6.10
2023-03-19T20:04:07.870Z,5.53
2023-03-19T20:06:38.516Z,5.33
2023-03-19T20:09:10.812Z,4.47
2023-03-19T20:11:44.382Z,4.83
2023-03-19T20:14:15.353Z,4.67
2023-03-19T20:16:47.257Z,4.35
2023-03-19T20:19:20.768Z,4.87
2023-03-19T20:21:51.781Z,4.30
2023-03-19T20:24:22.391Z,4.53
2023-03-19T20:26:54.277Z,4.62
2023-03-19T20:29:24.868Z,4.35
2023-03-19T20:31:58.310Z,4.37
2023-03-19T20:34:39.126Z,4.40
2023-03-19T20:37:03.350Z,4.20
2023-03-19T20:39:37.124Z,4.97
2023-03-19T20:42:13.715Z,4.42
2023-03-19T20:44:45.655Z,5.05
2023-03-19T20:47:21.591Z,5.35
2023-03-19T20:49:53.456Z,5.30
2023-03-19T20:52:26.128Z,5.10
2023-03-19T20:54:58.455Z,5.20
2023-03-19T20:57:30.917Z,5.60
2023-03-19T21:00:05.997Z,5.45
2023-03-19T21:02:38.321Z,5.50
2023-03-19T21:05:13.328Z,5.45
2023-03-19T21:07:48.744Z,6.35
2023-03-19T21:10:26.472Z,5.28
2023-03-19T21:12:58.303Z,5.10
2023-03-19T21:15:31.903Z,5.37
2023-03-19T21:18:05.406Z,5.12
2023-03-19T21:20:44.569Z,5.47
2023-03-19T21:23:37.822Z,5.03
2023-03-19T21:26:22.156Z,5.50
2023-03-19T21:29:04.140Z,4.85
2023-03-19T21:31:34.849Z,5.00
2023-03-19T21:34:07.178Z,4.80
2023-03-19T21:36:42.085Z,5.10
2023-03-19T21:39:17.139Z,5.10
2023-03-19T21:41:48.401Z,5.65
2023-03-19T21:44:26.507Z,6.15
2023-03-19T21:46:57.445Z,4.90
2023-03-19T21:49:30.757Z,5.00
2023-03-19T21:52:04.888Z,4.90
2023-03-19T21:54:35.567Z,4.60
2023-03-19T21:57:06.753Z,4.42
2023-03-19T21:59:39.164Z,4.62
2023-03-19T22:02:29.547Z,4.72
2023-03-19T22:05:00.180Z,4.65
2023-03-19T22:07:30.665Z,4.80
2023-03-19T22:10:05.381Z,5.10
2023-03-19T22:12:39.379Z,4.67
2023-03-19T22:15:25.070Z,4.65
2023-03-19T22:17:57.349Z,4.60
2023-03-19T22:20:30.911Z,4.67
2023-03-19T22:23:06.685Z,4.80
2023-03-19T22:25:42.299Z,4.92
2023-03-19T22:28:34.842Z,4.75
2023-03-19T22:31:07.691Z,5.45
2023-03-19T22:33:43.727Z,4.45
2023-03-19T22:36:16.570Z,5.42
2023-03-19T22:38:52.883Z,4.70
2023-03-19T22:41:38.354Z,4.17
2023-03-19T22:44:18.218Z,5.05
2023-03-19T22:46:53.072Z,4.70
2023-03-19T22:49:25.626Z,4.47
2023-03-19T22:51:58.767Z,4.85
2023-03-19T22:54:35.712Z,4.45
2023-03-19T22:57:06.267Z,4.20
2023-03-19T22:59:37.676Z,4.42
2023-03-19T23:02:21.557Z,3.75
2023-03-19T23:04:59.100Z,4.55
2023-03-19T23:07:39.690Z,4.28
2023-03-19T23:10:15.585Z,4.15
2023-03-19T23:12:47.878Z,3.87
2023-03-19T23:15:19.808Z,4.47
2023-03-19T23:17:54.132Z,3.90
2023-03-19T23:20:27.663Z,4.30
2023-03-19T23:22:58.414Z,4.45
2023-03-19T23:25:31.562Z,4.60
2023-03-19T23:28:06.060Z,4.03
2023-03-19T23:30:39.556Z,4.03
2023-03-19T23:33:13.334Z,4.40
2023-03-19T23:35:44.864Z,4.30
2023-03-19T23:38:25.714Z,4.60
2023-03-19T23:40:56.786Z,4.72
2023-03-19T23:43:37.042Z,4.28
2023-03-19T23:46:07.913Z,4.00
2023-03-19T23:48:42.525Z,3.92
2023-03-19T23:51:15.380Z,3.90
2023-03-19T23:53:47.825Z,4.30
2023-03-19T23:56:28.192Z,4.10
2023-03-19T23:59:09.105Z,4.05
